createdAt,value
2018-11-25T00:01:58.067Z,14.23
2018-11-25T00:04:25.624Z,14.68
2018-11-25T00:06:53.107Z,13.35
2018-11-25T00:09:20.691Z,12.88
2018-11-25T00:11:48.306Z,13.68
2018-11-25T00:14:15.775Z,14.93
2018-11-25T00:16:43.395Z,17.52
2018-11-25T00:19:10.987Z,13.83
2018-11-25T00:21:38.493Z,14.20
2018-11-25T00:24:06.163Z,13.55
2018-11-25T00:26:33.717Z,14.03
2018-11-25T00:29:01.443Z,13.15
2018-11-25T00:31:28.948Z,15.43
2018-11-25T00:33:56.486Z,14.45
2018-11-25T00:36:23.950Z,14.70
2018-11-25T00:38:51.526Z,15.58
2018-11-25T00:41:19.008Z,15.70
2018-11-25T00:43:46.577Z,16.70
2018-11-25T00:46:14.106Z,14.30
2018-11-25T00:48:41.589Z,14.20
2018-11-25T00:51:09.144Z,15.50
2018-11-25T00:53:36.633Z,14.63
2018-11-25T00:56:04.376Z,15.05
2018-11-25T00:58:31.885Z,15.45
2018-11-25T01:00:59.412Z,14.70
2018-11-25T01:03:26.919Z,15.15
2018-11-25T01:05:54.515Z,14.55
2018-11-25T01:08:22.003Z,16.37
2018-11-25T01:10:49.546Z,17.60
2018-11-25T01:13:17.162Z,15.70
2018-11-25T01:15:44.712Z,17.67
2018-11-25T01:18:12.182Z,19.20
2018-11-25T01:20:39.711Z,15.55
2018-11-25T01:23:07.252Z,16.55
2018-11-25T01:25:34.822Z,17.65
2018-11-25T01:28:02.366Z,15.72
2018-11-25T01:30:29.927Z,16.62
2018-11-25T01:32:57.373Z,17.00
2018-11-25T01:35:24.836Z,17.90
2018-11-25T01:37:52.363Z,18.48
2018-11-25T01:40:19.908Z,16.23
2018-11-25T01:42:47.500Z,18.73
2018-11-25T01:45:15.909Z,16.30
2018-11-25T01:47:43.450Z,17.35
2018-11-25T01:50:13.931Z,18.23
2018-11-25T01:52:41.527Z,18.85
2018-11-25T01:55:10.398Z,16.77
2018-11-25T01:57:37.920Z,16.70
2018-11-25T02:00:12.719Z,20.08
2018-11-25T02:02:40.257Z,15.98
2018-11-25T02:05:07.783Z,17.25
2018-11-25T02:07:35.264Z,18.30
2018-11-25T02:10:04.085Z,17.60
2018-11-25T02:12:31.679Z,17.02
2018-11-25T02:14:59.165Z,17.23
2018-11-25T02:17:26.725Z,18.50
2018-11-25T02:19:54.296Z,18.23
2018-11-25T02:22:21.803Z,17.17
2018-11-25T02:24:49.342Z,18.07
2018-11-25T02:27:16.802Z,17.70
2018-11-25T02:29:44.343Z,17.82
2018-11-25T02:32:11.800Z,16.62
2018-11-25T02:34:39.386Z,19.17
2018-11-25T02:37:06.954Z,17.80
2018-11-25T02:39:34.485Z,18.60
2018-11-25T02:42:01.953Z,17.92
2018-11-25T02:44:29.499Z,17.85
2018-11-25T02:46:56.935Z,18.98
2018-11-25T02:49:24.492Z,18.02
2018-11-25T02:51:51.977Z,18.10
2018-11-25T02:54:19.518Z,17.48
2018-11-25T02:56:47.020Z,21.50
2018-11-25T02:59:14.543Z,18.80
2018-11-25T03:01:42.074Z,19.52
2018-11-25T03:04:09.544Z,18.20
2018-11-25T03:06:37.103Z,16.32
2018-11-25T03:09:05.940Z,18.20
2018-11-25T03:11:33.654Z,16.48
2018-11-25T03:14:01.391Z,17.48
2018-11-25T03:16:29.023Z,18.37
2018-11-25T03:18:56.482Z,17.35
2018-11-25T03:21:24.020Z,21.52
2018-11-25T03:23:51.523Z,20.40
2018-11-25T03:26:19.058Z,19.27
2018-11-25T03:28:46.511Z,20.40
2018-11-25T03:31:13.964Z,18.55
2018-11-25T03:33:41.500Z,18.02
2018-11-25T03:36:09.031Z,19.95
2018-11-25T03:38:36.574Z,19.17
2018-11-25T03:41:04.067Z,20.20
2018-11-25T03:43:31.586Z,22.60
2018-11-25T03:45:59.030Z,18.67
2018-11-25T03:48:26.483Z,18.20
2018-11-25T03:50:53.999Z,18.82
2018-11-25T03:53:21.459Z,18.98
2018-11-25T03:55:49.005Z,20.43
2018-11-25T03:58:16.533Z,19.55
2018-11-25T04:00:43.986Z,18.98
2018-11-25T04:03:11.498Z,18.48
2018-11-25T04:05:38.964Z,19.62
2018-11-25T04:08:06.559Z,19.48
2018-11-25T04:10:34.010Z,19.00
2018-11-25T04:13:01.636Z,17.90
2018-11-25T04:15:29.191Z,18.35
2018-11-25T04:17:56.694Z,18.60
2018-11-25T04:20:24.246Z,21.12
2018-11-25T04:22:51.720Z,18.90
2018-11-25T04:25:19.276Z,18.82
2018-11-25T04:27:46.734Z,22.55
2018-11-25T04:30:16.223Z,17.42
2018-11-25T04:32:44.425Z,23.00
2018-11-25T04:35:12.408Z,18.40
2018-11-25T04:37:39.915Z,19.27
2018-11-25T04:40:08.858Z,19.55
2018-11-25T04:42:36.334Z,17.57
2018-11-25T04:45:04.047Z,19.62
2018-11-25T04:47:31.499Z,21.70
2018-11-25T04:49:58.956Z,17.10
2018-11-25T04:52:26.492Z,18.40
2018-11-25T04:54:53.965Z,17.75
2018-11-25T04:57:21.514Z,18.45
2018-11-25T04:59:49.004Z,21.23
2018-11-25T05:02:16.542Z,18.62
2018-11-25T05:04:43.986Z,18.75
2018-11-25T05:07:11.500Z,20.08
2018-11-25T05:09:38.963Z,17.07
2018-11-25T05:12:07.349Z,18.15
2018-11-25T05:14:34.802Z,22.95
2018-11-25T05:17:02.682Z,20.30
2018-11-25T05:19:30.126Z,19.12
2018-11-25T05:21:57.642Z,19.73
2018-11-25T05:24:25.109Z,18.50
2018-11-25T05:26:52.630Z,25.30
2018-11-25T05:29:20.111Z,19.42
2018-11-25T05:31:47.615Z,20.05
2018-11-25T05:34:15.078Z,22.17
2018-11-25T05:36:42.534Z,20.27
2018-11-25T05:39:10.068Z,20.90
2018-11-25T05:41:37.526Z,20.17
2018-11-25T05:44:05.092Z,20.52
2018-11-25T05:46:32.531Z,21.48
2018-11-25T05:49:00.076Z,19.90
2018-11-25T05:51:27.527Z,19.15
2018-11-25T05:53:55.054Z,19.25
2018-11-25T05:56:22.524Z,19.75
2018-11-25T05:58:50.054Z,19.12
2018-11-25T06:01:17.516Z,18.67
2018-11-25T06:03:45.064Z,19.82
2018-11-25T06:06:12.514Z,19.60
2018-11-25T06:08:40.050Z,22.00
2018-11-25T06:11:07.511Z,20.23
2018-11-25T06:13:35.158Z,20.08
2018-11-25T06:16:02.669Z,19.87
2018-11-25T06:18:30.137Z,19.95
2018-11-25T06:20:57.659Z,19.45
2018-11-25T06:23:25.087Z,21.68
2018-11-25T06:25:52.680Z,18.45
2018-11-25T06:28:20.180Z,19.55
2018-11-25T06:30:47.686Z,18.40
2018-11-25T06:33:15.130Z,17.82
2018-11-25T06:35:42.659Z,23.52
2018-11-25T06:38:10.131Z,19.48
2018-11-25T06:40:37.647Z,18.23
2018-11-25T06:43:05.342Z,18.62
2018-11-25T06:45:32.882Z,23.10
2018-11-25T06:48:00.326Z,22.45
2018-11-25T06:50:27.882Z,20.55
2018-11-25T06:52:55.400Z,22.52
2018-11-25T06:55:22.962Z,22.60
2018-11-25T06:57:50.453Z,22.37
2018-11-25T07:00:21.052Z,20.92
2018-11-25T07:02:48.556Z,17.90
2018-11-25T07:05:16.159Z,22.95
2018-11-25T07:07:43.713Z,20.08
2018-11-25T07:10:16.146Z,19.60
2018-11-25T07:12:43.788Z,22.02
2018-11-25T07:15:12.586Z,22.30
2018-11-25T07:17:40.123Z,25.27
2018-11-25T07:20:09.448Z,22.98
2018-11-25T07:22:38.124Z,22.93
2018-11-25T07:25:11.920Z,22.67
2018-11-25T07:27:39.477Z,21.73
2018-11-25T07:30:11.727Z,25.90
2018-11-25T07:32:39.319Z,23.00
2018-11-25T07:35:07.167Z,24.43
2018-11-25T07:37:35.027Z,23.92
2018-11-25T07:40:03.397Z,25.27
2018-11-25T07:42:30.946Z,27.52
2018-11-25T07:44:58.418Z,24.12
2018-11-25T07:47:25.947Z,25.30
2018-11-25T07:49:53.439Z,30.75
2018-11-25T07:52:20.967Z,27.52
2018-11-25T07:54:48.508Z,26.75
2018-11-25T07:57:16.073Z,26.90
2018-11-25T07:59:43.623Z,26.05
2018-11-25T08:02:11.170Z,30.20
2018-11-25T08:04:38.761Z,29.92
2018-11-25T08:07:06.267Z,25.92
2018-11-25T08:09:33.866Z,28.30
2018-11-25T08:12:01.489Z,26.50
2018-11-25T08:14:29.196Z,26.62
2018-11-25T08:16:56.706Z,29.25
2018-11-25T08:45:43.851Z,29.67
2018-11-25T08:48:11.383Z,31.37
2018-11-25T08:50:38.984Z,33.30
2018-11-25T08:53:06.830Z,37.00
2018-11-25T08:55:35.228Z,33.10
2018-11-25T08:58:02.826Z,34.00
2018-11-25T09:00:30.412Z,36.77
2018-11-25T09:02:57.930Z,35.85
2018-11-25T09:05:25.945Z,32.73
2018-11-25T09:07:54.617Z,34.08
2018-11-25T09:10:22.404Z,33.23
2018-11-25T09:12:56.055Z,35.08
2018-11-25T09:15:21.210Z,31.87
2018-11-25T09:17:48.864Z,31.33
2018-11-25T09:20:17.580Z,34.78
2018-11-25T09:22:45.197Z,32.78
2018-11-25T09:25:14.259Z,30.12
2018-11-25T09:27:42.543Z,37.78
2018-11-25T09:30:12.623Z,31.60
2018-11-25T09:32:40.208Z,35.40
2018-11-25T09:35:07.865Z,34.23
2018-11-25T09:37:35.483Z,32.50
2018-11-25T09:40:03.210Z,31.37
2018-11-25T09:42:30.843Z,33.05
2018-11-25T09:44:58.320Z,33.02
2018-11-25T09:47:25.923Z,29.67
2018-11-25T09:49:53.476Z,27.10
2018-11-25T09:52:21.060Z,29.98
2018-11-25T09:54:48.591Z,26.87
2018-11-25T09:57:16.379Z,29.10
2018-11-25T09:59:43.965Z,27.13
2018-11-25T10:02:11.612Z,30.05
2018-11-25T10:04:39.168Z,26.97
2018-11-25T10:07:08.878Z,26.55
2018-11-25T10:09:36.713Z,25.92
2018-11-25T10:12:05.365Z,26.00
2018-11-25T10:14:32.984Z,25.32
2018-11-25T10:17:01.066Z,21.75
2018-11-25T10:19:28.623Z,23.00
2018-11-25T10:21:56.112Z,27.90
2018-11-25T10:24:24.401Z,27.00
2018-11-25T10:26:52.000Z,21.23
2018-11-25T10:29:19.743Z,25.12
2018-11-25T10:31:47.225Z,22.37
2018-11-25T10:34:15.467Z,25.08
2018-11-25T10:36:43.148Z,22.55
2018-11-25T10:39:10.746Z,20.15
2018-11-25T10:41:38.338Z,22.27
2018-11-25T10:44:05.894Z,20.00
2018-11-25T10:46:33.460Z,20.27
2018-11-25T10:49:01.013Z,24.23
2018-11-25T10:51:28.589Z,17.75
2018-11-25T10:53:56.075Z,20.02
2018-11-25T10:56:30.779Z,17.60
2018-11-25T10:58:58.286Z,21.55
2018-11-25T11:01:31.546Z,17.90
2018-11-25T11:03:59.144Z,17.77
2018-11-25T11:06:32.575Z,17.98
2018-11-25T11:09:00.115Z,18.27
2018-11-25T11:11:27.731Z,16.40
2018-11-25T11:13:55.389Z,16.20
2018-11-25T11:16:22.943Z,16.57
2018-11-25T11:18:50.471Z,18.57
2018-11-25T11:21:18.039Z,16.85
2018-11-25T11:23:45.551Z,17.48
2018-11-25T11:26:30.305Z,15.40
2018-11-25T11:28:57.873Z,16.10
2018-11-25T11:31:25.621Z,16.93
2018-11-25T11:33:53.135Z,19.77
2018-11-25T11:36:20.734Z,15.63
2018-11-25T11:38:48.434Z,17.73
2018-11-25T11:41:16.011Z,16.40
2018-11-25T11:43:43.647Z,14.53
2018-11-25T11:46:11.176Z,16.27
2018-11-25T11:48:38.770Z,15.53
2018-11-25T11:51:06.330Z,16.12
2018-11-25T11:53:33.922Z,16.50
2018-11-25T11:56:01.492Z,17.57
2018-11-25T11:58:29.126Z,18.02
2018-11-25T12:00:56.644Z,15.78
2018-11-25T12:03:26.472Z,17.95
2018-11-25T12:05:51.770Z,15.68
2018-11-25T12:08:19.416Z,17.25
2018-11-25T12:10:46.924Z,14.00
2018-11-25T12:13:14.608Z,16.17
2018-11-25T12:15:42.206Z,16.50
2018-11-25T12:18:09.738Z,15.20
2018-11-25T12:20:37.324Z,15.13
2018-11-25T12:23:06.053Z,16.17
2018-11-25T13:26:20.433Z,11.08
2018-11-25T13:28:48.023Z,11.15
2018-11-25T13:31:15.568Z,10.53
2018-11-25T13:33:43.185Z,11.50
2018-11-25T13:36:10.795Z,12.93
2018-11-25T13:38:38.372Z,13.10
2018-11-25T13:41:06.569Z,13.78
2018-11-25T13:43:34.159Z,12.60
2018-11-25T13:46:01.916Z,14.23
2018-11-25T13:48:29.550Z,14.45
2018-11-25T13:51:06.885Z,14.10
2018-11-25T13:53:34.579Z,13.28
2018-11-25T13:56:02.107Z,14.25
2018-11-25T13:58:29.697Z,15.23
2018-11-25T14:00:57.676Z,14.00
2018-11-25T14:03:28.196Z,13.83
2018-11-25T14:05:55.706Z,13.72
2018-11-25T14:08:23.322Z,14.05
2018-11-25T14:11:00.868Z,13.65
2018-11-25T14:13:28.555Z,14.40
2018-11-25T14:15:56.065Z,14.10
2018-11-25T14:18:23.619Z,15.30
2018-11-25T14:20:51.239Z,15.58
2018-11-25T14:23:18.775Z,13.18
2018-11-25T14:25:46.434Z,13.83
2018-11-25T14:28:14.887Z,12.30
2018-11-25T14:30:42.593Z,14.63
2018-11-25T14:33:10.139Z,13.93
2018-11-25T14:35:37.803Z,14.93
2018-11-25T14:38:06.050Z,13.22
2018-11-25T14:40:33.655Z,12.98
2018-11-25T14:43:01.333Z,12.95
2018-11-25T14:45:28.940Z,13.28
2018-11-25T14:47:56.581Z,12.35
2018-11-25T14:50:24.140Z,13.53
2018-11-25T14:52:52.248Z,11.95
2018-11-25T14:55:20.134Z,13.35
2018-11-25T14:57:47.807Z,13.15
2018-11-25T15:00:19.437Z,13.65
2018-11-25T15:02:49.492Z,12.53
2018-11-25T15:05:22.181Z,11.80
2018-11-25T15:07:49.799Z,12.30
2018-11-25T15:10:17.377Z,11.45
2018-11-25T15:12:45.102Z,11.85
2018-11-25T15:15:13.742Z,10.70
2018-11-25T15:17:42.419Z,12.90
2018-11-25T15:20:11.136Z,12.80
2018-11-25T15:22:39.011Z,11.20
2018-11-25T15:25:09.992Z,11.70
2018-11-25T15:27:37.639Z,10.45
2018-11-25T15:30:07.907Z,10.75
2018-11-25T15:32:35.655Z,10.55
2018-11-25T15:35:03.626Z,10.18
2018-11-25T15:37:31.231Z,11.48
2018-11-25T15:39:58.743Z,11.20
2018-11-25T15:42:26.271Z,12.07
2018-11-25T15:44:53.898Z,11.60
2018-11-25T15:47:21.417Z,12.55
2018-11-25T15:49:49.013Z,11.85
2018-11-25T15:52:16.553Z,11.95
2018-11-25T15:54:44.180Z,15.88
2018-11-25T15:57:11.766Z,12.07
2018-11-25T15:59:39.369Z,13.62
2018-11-25T16:02:06.921Z,11.85
2018-11-25T16:04:34.526Z,14.95
2018-11-25T16:07:02.083Z,14.30
2018-11-25T16:09:29.755Z,14.87
2018-11-25T16:11:57.221Z,15.08
2018-11-25T16:14:24.956Z,17.05
2018-11-25T16:16:52.543Z,16.70
2018-11-25T16:19:20.223Z,15.50
2018-11-25T16:21:47.737Z,18.12
2018-11-25T16:24:15.336Z,18.67
2018-11-25T16:26:43.545Z,17.73
2018-11-25T16:29:17.116Z,16.48
2018-11-25T16:31:44.739Z,16.77
2018-11-25T16:34:12.283Z,19.62
2018-11-25T16:36:39.898Z,16.27
2018-11-25T16:39:08.808Z,20.68
2018-11-25T16:41:36.493Z,19.05
2018-11-25T16:44:04.015Z,17.15
2018-11-25T16:46:31.655Z,21.02
2018-11-25T16:48:59.225Z,22.10
2018-11-25T16:51:26.879Z,22.60
2018-11-25T16:53:54.387Z,21.57
2018-11-25T16:56:22.035Z,19.40
2018-11-25T16:58:49.620Z,20.12
2018-11-25T17:01:17.156Z,21.00
2018-11-25T17:03:44.781Z,20.50
2018-11-25T17:06:12.545Z,19.15
2018-11-25T17:08:41.481Z,23.98
2018-11-25T17:11:09.142Z,22.73
2018-11-25T17:13:36.937Z,20.32
2018-11-25T17:16:05.430Z,20.15
2018-11-25T17:18:33.116Z,18.92
2018-11-25T17:21:00.921Z,20.57
2018-11-25T17:23:28.635Z,20.90
2018-11-25T17:25:56.146Z,20.60
2018-11-25T17:28:23.705Z,19.40
2018-11-25T17:30:51.324Z,19.60
2018-11-25T17:33:19.001Z,19.15
2018-11-25T17:35:46.621Z,21.42
2018-11-25T17:38:14.304Z,23.73
2018-11-25T17:40:41.967Z,23.77
2018-11-25T17:43:11.495Z,19.82
2018-11-25T17:45:39.136Z,25.57
2018-11-25T17:48:06.739Z,18.85
2018-11-25T17:50:34.357Z,19.70
2018-11-25T17:53:01.971Z,20.75
2018-11-25T17:55:30.740Z,21.77
2018-11-25T17:57:58.369Z,20.72
2018-11-25T18:00:43.842Z,20.65
2018-11-25T18:03:15.966Z,22.05
2018-11-25T18:05:43.719Z,18.87
2018-11-25T18:08:11.409Z,20.50
2018-11-25T18:10:39.103Z,18.73
2018-11-25T18:13:06.911Z,19.55
2018-11-25T18:15:34.625Z,19.42
2018-11-25T18:18:07.825Z,23.38
2018-11-25T18:20:38.951Z,22.15
2018-11-25T18:23:07.689Z,25.10
2018-11-25T18:25:35.392Z,21.27
2018-11-25T18:28:03.072Z,20.77
2018-11-25T18:30:30.732Z,19.87
2018-11-25T18:32:58.374Z,23.90
2018-11-25T18:35:26.022Z,23.38
2018-11-25T18:37:53.691Z,22.65
2018-11-25T18:40:21.300Z,25.72
2018-11-25T18:42:48.906Z,20.30
2018-11-25T18:45:17.641Z,23.00
2018-11-25T18:47:47.624Z,21.15
2018-11-25T18:50:15.986Z,22.25
2018-11-25T18:52:45.399Z,18.70
2018-11-25T18:55:11.855Z,26.45
2018-11-25T18:57:39.507Z,22.48
2018-11-25T19:00:11.283Z,21.60
2018-11-25T19:02:41.383Z,24.10
2018-11-25T19:08:09.023Z,20.70
2018-11-25T19:10:36.698Z,22.62
2018-11-25T19:13:04.528Z,20.32
2018-11-25T19:15:32.278Z,22.58
2018-11-25T19:17:59.849Z,24.60
2018-11-25T19:20:28.416Z,20.60
2018-11-25T19:31:48.777Z,19.10
2018-11-25T19:34:16.380Z,21.30
2018-11-25T19:36:44.016Z,22.60
2018-11-25T19:39:11.592Z,21.55
2018-11-25T19:41:39.287Z,19.75
2018-11-25T19:44:06.802Z,20.82
2018-11-25T19:46:34.574Z,21.93
2018-11-25T19:49:02.191Z,21.70
2018-11-25T19:51:29.963Z,24.07
2018-11-25T19:53:57.581Z,21.48
2018-11-25T19:56:25.373Z,22.45
2018-11-25T19:58:57.513Z,19.40
2018-11-25T20:01:25.153Z,22.40
2018-11-25T20:03:52.979Z,19.02
2018-11-25T20:06:20.673Z,23.02
2018-11-25T20:08:48.309Z,23.07
2018-11-25T20:11:16.043Z,22.37
2018-11-25T20:13:43.730Z,21.82
2018-11-25T20:16:17.270Z,23.87
2018-11-25T20:18:44.910Z,20.32
2018-11-25T20:21:18.352Z,22.77
2018-11-25T20:23:45.951Z,22.67
2018-11-25T20:26:13.605Z,21.80
2018-11-25T20:28:41.183Z,22.05
2018-11-25T20:31:08.722Z,23.35
2018-11-25T20:33:42.063Z,24.20
2018-11-25T20:36:09.612Z,22.87
2018-11-25T20:38:42.928Z,20.55
2018-11-25T20:41:10.545Z,23.30
2018-11-25T20:43:38.213Z,24.27
2018-11-25T20:46:11.649Z,22.30
2018-11-25T20:48:39.299Z,22.07
2018-11-25T20:51:06.863Z,21.02
2018-11-25T20:53:40.192Z,17.92
2018-11-25T20:56:07.746Z,20.12
2018-11-25T20:58:35.357Z,22.25
2018-11-25T21:01:03.008Z,21.00
2018-11-25T21:03:30.682Z,20.00
2018-11-25T21:05:58.291Z,21.68
2018-11-25T21:08:27.449Z,21.40
2018-11-25T21:10:53.763Z,19.48
2018-11-25T21:13:21.408Z,19.10
2018-11-25T21:15:49.041Z,20.15
2018-11-25T21:18:16.626Z,20.65
2018-11-25T21:20:51.091Z,26.12
2018-11-25T21:23:12.382Z,24.45
2018-11-25T21:25:39.979Z,25.05
2018-11-25T21:28:07.539Z,23.83
2018-11-25T21:30:35.188Z,23.65
2018-11-25T21:33:02.776Z,23.12
2018-11-25T21:35:30.404Z,25.62
2018-11-25T21:37:57.952Z,20.88
2018-11-25T21:40:25.649Z,20.82
2018-11-25T21:42:53.139Z,20.32
2018-11-25T21:45:21.225Z,23.10
2018-11-25T21:47:49.145Z,20.32
2018-11-25T21:50:31.800Z,21.05
2018-11-25T21:52:59.291Z,24.90
2018-11-25T21:55:26.896Z,23.22
2018-11-25T21:57:54.536Z,20.48
2018-11-25T22:00:23.109Z,21.77
2018-11-25T22:02:50.708Z,19.07
2018-11-25T22:05:18.350Z,22.65
2018-11-25T22:07:46.000Z,22.98
2018-11-25T22:10:15.234Z,22.87
2018-11-25T22:12:43.343Z,20.50
2018-11-25T22:15:12.106Z,21.27
2018-11-25T22:17:39.832Z,26.10
2018-11-25T22:20:08.740Z,19.75
2018-11-25T22:22:36.367Z,19.77
2018-11-25T22:25:08.142Z,18.80
2018-11-25T22:27:35.760Z,23.10
2018-11-25T22:30:04.165Z,18.98
2018-11-25T22:32:31.755Z,21.37
2018-11-25T22:34:59.312Z,19.82
2018-11-25T22:37:26.799Z,19.30
2018-11-25T22:39:54.410Z,20.68
2018-11-25T22:42:21.891Z,21.10
2018-11-25T22:44:49.442Z,21.77
2018-11-25T22:47:16.937Z,18.77
2018-11-25T22:49:44.747Z,23.10
2018-11-25T22:52:12.262Z,23.02
2018-11-25T22:54:39.833Z,21.82
2018-11-25T22:57:07.339Z,21.52
2018-11-25T22:59:34.918Z,23.77
2018-11-25T23:02:02.420Z,20.05
2018-11-25T23:04:41.388Z,23.40
2018-11-25T23:07:08.899Z,23.10
2018-11-25T23:09:50.103Z,24.55
2018-11-25T23:12:17.669Z,23.32
2018-11-25T23:14:45.311Z,24.40
2018-11-25T23:17:12.812Z,21.73
2018-11-25T23:19:40.375Z,23.98
2018-11-25T23:22:07.866Z,21.60
2018-11-25T23:24:35.352Z,31.48
2018-11-25T23:27:03.095Z,22.98
2018-11-25T23:29:30.667Z,23.87
2018-11-25T23:31:58.255Z,23.15
2018-11-25T23:34:25.715Z,27.73
2018-11-25T23:36:53.263Z,25.68
2018-11-25T23:39:20.754Z,26.80
2018-11-25T23:41:48.294Z,25.50
2018-11-25T23:44:15.782Z,26.62
2018-11-25T23:46:43.448Z,26.20
2018-11-25T23:49:10.906Z,26.50
2018-11-25T23:51:38.475Z,24.23
2018-11-25T23:54:05.980Z,27.32
2018-11-25T23:56:33.547Z,25.27
2018-11-25T23:59:01.352Z,23.25
